sensor_id;sensor_type;location;lat;lon;timestamp;P1;durP1;ratioP1;P2;durP2;ratioP2
70138;SDS011;57507;43.056;0.150;2023-04-08T00:00:07;1.10;;;0.70;;
70138;SDS011;57507;43.056;0.150;2023-04-08T00:02:37;1.30;;;0.95;;
70138;SDS011;57507;43.056;0.150;2023-04-08T00:08:04;2.50;;;0.60;;
70138;SDS011;57507;43.056;0.150;2023-04-08T00:10:33;1.55;;;0.80;;
70138;SDS011;57507;43.056;0.150;2023-04-08T00:13:00;1.45;;;0.80;;
70138;SDS011;57507;43.056;0.150;2023-04-08T00:15:29;0.85;;;0.70;;
70138;SDS011;57507;43.056;0.150;2023-04-08T00:18:01;0.70;;;0.70;;
70138;SDS011;57507;43.056;0.150;2023-04-08T00:20:31;1.70;;;0.70;;
70138;SDS011;57507;43.056;0.150;2023-04-08T00:23:00;1.40;;;0.70;;
70138;SDS011;57507;43.056;0.150;2023-04-08T00:25:29;0.70;;;0.70;;
70138;SDS011;57507;43.056;0.150;2023-04-08T00:28:05;2.40;;;0.80;;
70138;SDS011;57507;43.056;0.150;2023-04-08T00:30:57;0.73;;;0.60;;
70138;SDS011;57507;43.056;0.150;2023-04-08T00:33:29;1.60;;;0.80;;
70138;SDS011;57507;43.056;0.150;2023-04-08T00:35:59;0.70;;;0.70;;
70138;SDS011;57507;43.056;0.150;2023-04-08T00:41:13;0.70;;;0.60;;
70138;SDS011;57507;43.056;0.150;2023-04-08T00:43:46;0.90;;;0.80;;
70138;SDS011;57507;43.056;0.150;2023-04-08T00:46:18;1.52;;;0.80;;
70138;SDS011;57507;43.056;0.150;2023-04-08T00:48:57;0.95;;;0.70;;
70138;SDS011;57507;43.056;0.150;2023-04-08T00:51:31;2.45;;;0.57;;
70138;SDS011;57507;43.056;0.150;2023-04-08T00:57:39;2.97;;;0.68;;
70138;SDS011;57507;43.056;0.150;2023-04-08T01:00:06;1.77;;;0.65;;
70138;SDS011;57507;43.056;0.150;2023-04-08T01:02:38;1.52;;;0.70;;
70138;SDS011;57507;43.056;0.150;2023-04-08T01:05:12;1.15;;;0.70;;
70138;SDS011;57507;43.056;0.150;2023-04-08T01:07:51;1.13;;;0.70;;
70138;SDS011;57507;43.056;0.150;2023-04-08T01:10:37;0.80;;;0.70;;
70138;SDS011;57507;43.056;0.150;2023-04-08T01:13:13;1.10;;;0.63;;
70138;SDS011;57507;43.056;0.150;2023-04-08T01:15:49;1.77;;;0.80;;
70138;SDS011;57507;43.056;0.150;2023-04-08T01:18:16;1.15;;;0.80;;
70138;SDS011;57507;43.056;0.150;2023-04-08T01:20:58;1.08;;;0.70;;
70138;SDS011;57507;43.056;0.150;2023-04-08T01:26:25;0.95;;;0.57;;
70138;SDS011;57507;43.056;0.150;2023-04-08T01:28:55;1.23;;;0.82;;
70138;SDS011;57507;43.056;0.150;2023-04-08T01:31:37;1.17;;;0.50;;
70138;SDS011;57507;43.056;0.150;2023-04-08T01:34:19;1.02;;;0.80;;
70138;SDS011;57507;43.056;0.150;2023-04-08T01:36:46;0.80;;;0.63;;
70138;SDS011;57507;43.056;0.150;2023-04-08T01:39:16;0.98;;;0.63;;
70138;SDS011;57507;43.056;0.150;2023-04-08T01:41:46;0.82;;;0.60;;
70138;SDS011;57507;43.056;0.150;2023-04-08T01:44:16;0.85;;;0.70;;
70138;SDS011;57507;43.056;0.150;2023-04-08T01:47:01;0.80;;;0.73;;
70138;SDS011;57507;43.056;0.150;2023-04-08T01:49:37;0.88;;;0.75;;
70138;SDS011;57507;43.056;0.150;2023-04-08T01:52:36;0.95;;;0.60;;
70138;SDS011;57507;43.056;0.150;2023-04-08T01:55:06;1.63;;;0.77;;
70138;SDS011;57507;43.056;0.150;2023-04-08T01:57:52;2.42;;;0.70;;
70138;SDS011;57507;43.056;0.150;2023-04-08T02:00:27;1.63;;;0.77;;
70138;SDS011;57507;43.056;0.150;2023-04-08T02:02:59;2.78;;;0.80;;
70138;SDS011;57507;43.056;0.150;2023-04-08T02:05:28;0.55;;;0.50;;
70138;SDS011;57507;43.056;0.150;2023-04-08T02:07:58;0.73;;;0.60;;
70138;SDS011;57507;43.056;0.150;2023-04-08T02:10:30;0.55;;;0.55;;
70138;SDS011;57507;43.056;0.150;2023-04-08T02:13:02;2.60;;;0.77;;
70138;SDS011;57507;43.056;0.150;2023-04-08T02:15:35;0.98;;;0.88;;
70138;SDS011;57507;43.056;0.150;2023-04-08T02:18:10;3.05;;;0.70;;
70138;SDS011;57507;43.056;0.150;2023-04-08T02:23:23;0.80;;;0.70;;
70138;SDS011;57507;43.056;0.150;2023-04-08T02:28:52;0.98;;;0.50;;
70138;SDS011;57507;43.056;0.150;2023-04-08T02:31:32;1.05;;;0.60;;
70138;SDS011;57507;43.056;0.150;2023-04-08T02:33:59;0.80;;;0.70;;
70138;SDS011;57507;43.056;0.150;2023-04-08T02:36:26;2.10;;;1.00;;
70138;SDS011;57507;43.056;0.150;2023-04-08T02:38:52;0.73;;;0.60;;
70138;SDS011;57507;43.056;0.150;2023-04-08T02:41:29;0.82;;;0.60;;
70138;SDS011;57507;43.056;0.150;2023-04-08T02:43:55;1.15;;;0.63;;
70138;SDS011;57507;43.056;0.150;2023-04-08T02:46:45;1.02;;;0.52;;
70138;SDS011;57507;43.056;0.150;2023-04-08T02:49:14;0.68;;;0.50;;
70138;SDS011;57507;43.056;0.150;2023-04-08T02:52:09;0.52;;;0.50;;
70138;SDS011;57507;43.056;0.150;2023-04-08T02:57:23;0.77;;;0.50;;
70138;SDS011;57507;43.056;0.150;2023-04-08T02:59:49;0.50;;;0.50;;
70138;SDS011;57507;43.056;0.150;2023-04-08T03:02:36;0.50;;;0.47;;
70138;SDS011;57507;43.056;0.150;2023-04-08T03:05:11;0.63;;;0.38;;
70138;SDS011;57507;43.056;0.150;2023-04-08T03:07:37;0.95;;;0.57;;
70138;SDS011;57507;43.056;0.150;2023-04-08T03:10:04;1.73;;;0.50;;
70138;SDS011;57507;43.056;0.150;2023-04-08T03:12:33;1.10;;;0.50;;
70138;SDS011;57507;43.056;0.150;2023-04-08T03:15:08;0.85;;;0.50;;
70138;SDS011;57507;43.056;0.150;2023-04-08T03:17:43;0.50;;;0.50;;
70138;SDS011;57507;43.056;0.150;2023-04-08T03:20:12;1.27;;;0.80;;
70138;SDS011;57507;43.056;0.150;2023-04-08T03:22:38;1.80;;;0.50;;
70138;SDS011;57507;43.056;0.150;2023-04-08T03:25:07;1.17;;;0.55;;
70138;SDS011;57507;43.056;0.150;2023-04-08T03:27:36;0.60;;;0.50;;
70138;SDS011;57507;43.056;0.150;2023-04-08T03:33:12;0.90;;;0.57;;
70138;SDS011;57507;43.056;0.150;2023-04-08T03:35:38;1.38;;;0.63;;
70138;SDS011;57507;43.056;0.150;2023-04-08T03:38:08;0.40;;;0.40;;
70138;SDS011;57507;43.056;0.150;2023-04-08T03:40:40;0.80;;;0.60;;
70138;SDS011;57507;43.056;0.150;2023-04-08T03:43:07;1.10;;;0.60;;
70138;SDS011;57507;43.056;0.150;2023-04-08T03:45:33;2.15;;;1.00;;
70138;SDS011;57507;43.056;0.150;2023-04-08T03:48:12;1.60;;;0.68;;
70138;SDS011;57507;43.056;0.150;2023-04-08T03:50:38;0.65;;;0.65;;
70138;SDS011;57507;43.056;0.150;2023-04-08T03:53:04;1.75;;;0.80;;
70138;SDS011;57507;43.056;0.150;2023-04-08T03:55:53;0.98;;;0.60;;
70138;SDS011;57507;43.056;0.150;2023-04-08T03:58:23;2.58;;;0.63;;
70138;SDS011;57507;43.056;0.150;2023-04-08T04:00:49;0.40;;;0.40;;
70138;SDS011;57507;43.056;0.150;2023-04-08T04:03:18;0.85;;;0.47;;
70138;SDS011;57507;43.056;0.150;2023-04-08T04:05:48;0.63;;;0.60;;
70138;SDS011;57507;43.056;0.150;2023-04-08T04:08:17;0.68;;;0.50;;
70138;SDS011;57507;43.056;0.150;2023-04-08T04:10:44;0.60;;;0.60;;
70138;SDS011;57507;43.056;0.150;2023-04-08T04:13:17;1.02;;;0.50;;
70138;SDS011;57507;43.056;0.150;2023-04-08T04:15:46;1.17;;;0.65;;
70138;SDS011;57507;43.056;0.150;2023-04-08T04:18:26;0.68;;;0.50;;
70138;SDS011;57507;43.056;0.150;2023-04-08T04:21:05;0.63;;;0.60;;
70138;SDS011;57507;43.056;0.150;2023-04-08T04:23:32;1.15;;;0.60;;
70138;SDS011;57507;43.056;0.150;2023-04-08T04:26:00;2.40;;;0.63;;
70138;SDS011;57507;43.056;0.150;2023-04-08T04:28:26;1.55;;;0.60;;
70138;SDS011;57507;43.056;0.150;2023-04-08T04:30:55;1.80;;;0.70;;
70138;SDS011;57507;43.056;0.150;2023-04-08T04:33:21;0.60;;;0.50;;
70138;SDS011;57507;43.056;0.150;2023-04-08T04:35:49;0.68;;;0.60;;
70138;SDS011;57507;43.056;0.150;2023-04-08T04:38:16;0.90;;;0.68;;
70138;SDS011;57507;43.056;0.150;2023-04-08T04:40:49;1.75;;;0.45;;
70138;SDS011;57507;43.056;0.150;2023-04-08T04:43:15;0.50;;;0.50;;
70138;SDS011;57507;43.056;0.150;2023-04-08T04:45:42;1.13;;;0.70;;
70138;SDS011;57507;43.056;0.150;2023-04-08T04:48:09;1.42;;;0.57;;
70138;SDS011;57507;43.056;0.150;2023-04-08T04:50:35;0.50;;;0.45;;
70138;SDS011;57507;43.056;0.150;2023-04-08T04:53:01;0.82;;;0.50;;
70138;SDS011;57507;43.056;0.150;2023-04-08T04:55:27;0.50;;;0.35;;
70138;SDS011;57507;43.056;0.150;2023-04-08T04:57:53;1.42;;;0.70;;
70138;SDS011;57507;43.056;0.150;2023-04-08T05:00:22;0.77;;;0.60;;
70138;SDS011;57507;43.056;0.150;2023-04-08T05:02:48;0.68;;;0.50;;
70138;SDS011;57507;43.056;0.150;2023-04-08T05:05:14;0.93;;;0.50;;
70138;SDS011;57507;43.056;0.150;2023-04-08T05:07:40;1.58;;;1.02;;
70138;SDS011;57507;43.056;0.150;2023-04-08T05:10:06;0.80;;;0.55;;
70138;SDS011;57507;43.056;0.150;2023-04-08T05:12:33;1.15;;;0.60;;
70138;SDS011;57507;43.056;0.150;2023-04-08T05:14:59;0.70;;;0.50;;
70138;SDS011;57507;43.056;0.150;2023-04-08T05:17:26;0.80;;;0.70;;
70138;SDS011;57507;43.056;0.150;2023-04-08T05:19:52;0.88;;;0.60;;
70138;SDS011;57507;43.056;0.150;2023-04-08T05:22:18;0.60;;;0.60;;
70138;SDS011;57507;43.056;0.150;2023-04-08T05:24:44;0.98;;;0.60;;
70138;SDS011;57507;43.056;0.150;2023-04-08T05:27:10;0.60;;;0.50;;
70138;SDS011;57507;43.056;0.150;2023-04-08T05:29:36;0.90;;;0.60;;
70138;SDS011;57507;43.056;0.150;2023-04-08T05:32:02;2.10;;;0.65;;
70138;SDS011;57507;43.056;0.150;2023-04-08T05:34:30;0.73;;;0.70;;
70138;SDS011;57507;43.056;0.150;2023-04-08T05:36:56;0.88;;;0.50;;
70138;SDS011;57507;43.056;0.150;2023-04-08T05:39:22;2.10;;;0.60;;
70138;SDS011;57507;43.056;0.150;2023-04-08T05:41:48;1.13;;;0.60;;
70138;SDS011;57507;43.056;0.150;2023-04-08T05:44:14;0.70;;;0.70;;
70138;SDS011;57507;43.056;0.150;2023-04-08T05:46:40;0.60;;;0.60;;
70138;SDS011;57507;43.056;0.150;2023-04-08T05:49:06;0.60;;;0.60;;
70138;SDS011;57507;43.056;0.150;2023-04-08T05:51:32;0.60;;;0.40;;
70138;SDS011;57507;43.056;0.150;2023-04-08T05:53:58;1.38;;;0.73;;
70138;SDS011;57507;43.056;0.150;2023-04-08T05:56:24;0.95;;;0.70;;
70138;SDS011;57507;43.056;0.150;2023-04-08T05:58:50;0.95;;;0.60;;
70138;SDS011;57507;43.056;0.150;2023-04-08T06:01:16;1.27;;;0.50;;
70138;SDS011;57507;43.056;0.150;2023-04-08T06:03:42;0.88;;;0.60;;
70138;SDS011;57507;43.056;0.150;2023-04-08T06:06:09;0.57;;;0.57;;
70138;SDS011;57507;43.056;0.150;2023-04-08T06:08:36;0.70;;;0.57;;
70138;SDS011;57507;43.056;0.150;2023-04-08T06:11:02;0.80;;;0.70;;
70138;SDS011;57507;43.056;0.150;2023-04-08T06:13:29;1.00;;;0.60;;
70138;SDS011;57507;43.056;0.150;2023-04-08T06:15:55;1.45;;;0.80;;
70138;SDS011;57507;43.056;0.150;2023-04-08T06:18:21;1.42;;;0.70;;
70138;SDS011;57507;43.056;0.150;2023-04-08T06:20:47;1.10;;;0.50;;
70138;SDS011;57507;43.056;0.150;2023-04-08T06:23:14;1.73;;;0.70;;
70138;SDS011;57507;43.056;0.150;2023-04-08T06:25:40;0.90;;;0.60;;
70138;SDS011;57507;43.056;0.150;2023-04-08T06:28:06;1.08;;;0.70;;
70138;SDS011;57507;43.056;0.150;2023-04-08T06:30:32;1.30;;;0.60;;
70138;SDS011;57507;43.056;0.150;2023-04-08T06:32:58;0.60;;;0.60;;
70138;SDS011;57507;43.056;0.150;2023-04-08T06:35:25;1.67;;;0.60;;
70138;SDS011;57507;43.056;0.150;2023-04-08T06:37:51;1.08;;;0.60;;
70138;SDS011;57507;43.056;0.150;2023-04-08T06:40:17;1.08;;;0.68;;
70138;SDS011;57507;43.056;0.150;2023-04-08T06:42:46;0.93;;;0.63;;
70138;SDS011;57507;43.056;0.150;2023-04-08T06:45:12;0.65;;;0.57;;
70138;SDS011;57507;43.056;0.150;2023-04-08T06:47:39;0.50;;;0.50;;
70138;SDS011;57507;43.056;0.150;2023-04-08T06:50:05;0.65;;;0.47;;
70138;SDS011;57507;43.056;0.150;2023-04-08T06:52:31;0.60;;;0.60;;
70138;SDS011;57507;43.056;0.150;2023-04-08T06:54:58;0.68;;;0.60;;
70138;SDS011;57507;43.056;0.150;2023-04-08T06:57:24;3.00;;;0.88;;
70138;SDS011;57507;43.056;0.150;2023-04-08T06:59:52;0.80;;;0.60;;
70138;SDS011;57507;43.056;0.150;2023-04-08T07:02:18;1.30;;;0.60;;
70138;SDS011;57507;43.056;0.150;2023-04-08T07:04:48;1.00;;;0.60;;
70138;SDS011;57507;43.056;0.150;2023-04-08T07:07:17;1.05;;;0.60;;
70138;SDS011;57507;43.056;0.150;2023-04-08T07:09:43;1.02;;;0.70;;
70138;SDS011;57507;43.056;0.150;2023-04-08T07:12:13;1.95;;;0.50;;
70138;SDS011;57507;43.056;0.150;2023-04-08T07:14:47;1.05;;;0.70;;
70138;SDS011;57507;43.056;0.150;2023-04-08T07:17:13;1.45;;;0.70;;
70138;SDS011;57507;43.056;0.150;2023-04-08T07:19:52;1.00;;;0.60;;
70138;SDS011;57507;43.056;0.150;2023-04-08T07:22:18;0.80;;;0.80;;
70138;SDS011;57507;43.056;0.150;2023-04-08T07:24:47;0.88;;;0.60;;
70138;SDS011;57507;43.056;0.150;2023-04-08T07:27:16;1.23;;;0.63;;
70138;SDS011;57507;43.056;0.150;2023-04-08T07:29:43;0.63;;;0.50;;
70138;SDS011;57507;43.056;0.150;2023-04-08T07:32:17;1.40;;;0.65;;
70138;SDS011;57507;43.056;0.150;2023-04-08T07:34:43;0.75;;;0.73;;
70138;SDS011;57507;43.056;0.150;2023-04-08T07:37:13;0.65;;;0.60;;
70138;SDS011;57507;43.056;0.150;2023-04-08T07:39:42;1.17;;;0.90;;
70138;SDS011;57507;43.056;0.150;2023-04-08T07:42:08;1.05;;;0.70;;
70138;SDS011;57507;43.056;0.150;2023-04-08T07:44:37;1.90;;;0.80;;
70138;SDS011;57507;43.056;0.150;2023-04-08T07:47:06;1.95;;;0.75;;
70138;SDS011;57507;43.056;0.150;2023-04-08T07:49:53;0.77;;;0.68;;
70138;SDS011;57507;43.056;0.150;2023-04-08T07:55:19;1.27;;;0.60;;
70138;SDS011;57507;43.056;0.150;2023-04-08T07:57:45;1.77;;;0.80;;
70138;SDS011;57507;43.056;0.150;2023-04-08T08:00:12;1.17;;;0.63;;
70138;SDS011;57507;43.056;0.150;2023-04-08T08:02:44;2.42;;;0.70;;
70138;SDS011;57507;43.056;0.150;2023-04-08T08:05:12;0.80;;;0.68;;
70138;SDS011;57507;43.056;0.150;2023-04-08T08:07:38;0.90;;;0.80;;
70138;SDS011;57507;43.056;0.150;2023-04-08T08:10:04;0.88;;;0.60;;
70138;SDS011;57507;43.056;0.150;2023-04-08T08:12:30;1.17;;;0.60;;
70138;SDS011;57507;43.056;0.150;2023-04-08T08:14:56;0.57;;;0.43;;
70138;SDS011;57507;43.056;0.150;2023-04-08T08:17:23;3.08;;;0.68;;
70138;SDS011;57507;43.056;0.150;2023-04-08T08:19:50;0.65;;;0.60;;
70138;SDS011;57507;43.056;0.150;2023-04-08T08:22:24;2.38;;;0.60;;
70138;SDS011;57507;43.056;0.150;2023-04-08T08:24:54;1.33;;;0.68;;
70138;SDS011;57507;43.056;0.150;2023-04-08T08:27:30;1.27;;;0.47;;
70138;SDS011;57507;43.056;0.150;2023-04-08T08:30:17;1.35;;;0.50;;
70138;SDS011;57507;43.056;0.150;2023-04-08T08:32:46;0.55;;;0.45;;
70138;SDS011;57507;43.056;0.150;2023-04-08T08:35:19;0.50;;;0.30;;
70138;SDS011;57507;43.056;0.150;2023-04-08T08:37:45;0.47;;;0.40;;
70138;SDS011;57507;43.056;0.150;2023-04-08T08:40:12;2.58;;;0.55;;
70138;SDS011;57507;43.056;0.150;2023-04-08T08:42:39;1.80;;;0.70;;
70138;SDS011;57507;43.056;0.150;2023-04-08T08:45:11;0.50;;;0.50;;
70138;SDS011;57507;43.056;0.150;2023-04-08T08:47:38;0.47;;;0.47;;
70138;SDS011;57507;43.056;0.150;2023-04-08T08:50:05;1.55;;;0.50;;
70138;SDS011;57507;43.056;0.150;2023-04-08T08:52:31;0.95;;;0.50;;
70138;SDS011;57507;43.056;0.150;2023-04-08T08:54:57;0.95;;;0.40;;
70138;SDS011;57507;43.056;0.150;2023-04-08T08:57:24;1.17;;;0.60;;
70138;SDS011;57507;43.056;0.150;2023-04-08T08:59:51;0.50;;;0.40;;
70138;SDS011;57507;43.056;0.150;2023-04-08T09:02:29;0.90;;;0.52;;
70138;SDS011;57507;43.056;0.150;2023-04-08T09:04:59;0.75;;;0.43;;
70138;SDS011;57507;43.056;0.150;2023-04-08T09:07:30;0.50;;;0.43;;
70138;SDS011;57507;43.056;0.150;2023-04-08T09:09:57;2.28;;;0.40;;
70138;SDS011;57507;43.056;0.150;2023-04-08T09:12:24;0.70;;;0.40;;
70138;SDS011;57507;43.056;0.150;2023-04-08T09:15:07;0.73;;;0.50;;
70138;SDS011;57507;43.056;0.150;2023-04-08T09:17:34;0.88;;;0.80;;
70138;SDS011;57507;43.056;0.150;2023-04-08T09:25:32;1.05;;;0.57;;
70138;SDS011;57507;43.056;0.150;2023-04-08T09:27:58;0.50;;;0.40;;
70138;SDS011;57507;43.056;0.150;2023-04-08T09:30:26;0.65;;;0.40;;
70138;SDS011;57507;43.056;0.150;2023-04-08T09:32:53;0.52;;;0.50;;
70138;SDS011;57507;43.056;0.150;2023-04-08T09:35:20;1.25;;;0.50;;
70138;SDS011;57507;43.056;0.150;2023-04-08T09:37:46;1.90;;;0.40;;
70138;SDS011;57507;43.056;0.150;2023-04-08T09:40:12;0.63;;;0.57;;
70138;SDS011;57507;43.056;0.150;2023-04-08T09:42:40;0.50;;;0.40;;
70138;SDS011;57507;43.056;0.150;2023-04-08T09:45:08;0.60;;;0.30;;
70138;SDS011;57507;43.056;0.150;2023-04-08T09:47:37;1.13;;;0.40;;
70138;SDS011;57507;43.056;0.150;2023-04-08T09:50:07;0.70;;;0.47;;
70138;SDS011;57507;43.056;0.150;2023-04-08T09:52:38;1.33;;;0.45;;
70138;SDS011;57507;43.056;0.150;2023-04-08T09:55:05;1.48;;;0.38;;
70138;SDS011;57507;43.056;0.150;2023-04-08T10:00:08;0.22;;;0.22;;
70138;SDS011;57507;43.056;0.150;2023-04-08T10:02:40;0.60;;;0.50;;
70138;SDS011;57507;43.056;0.150;2023-04-08T10:05:11;1.85;;;0.50;;
70138;SDS011;57507;43.056;0.150;2023-04-08T10:07:38;1.42;;;0.45;;
70138;SDS011;57507;43.056;0.150;2023-04-08T10:10:05;0.88;;;0.40;;
70138;SDS011;57507;43.056;0.150;2023-04-08T10:12:33;0.70;;;0.40;;
70138;SDS011;57507;43.056;0.150;2023-04-08T10:17:45;0.50;;;0.30;;
70138;SDS011;57507;43.056;0.150;2023-04-08T10:23:16;0.98;;;0.88;;
70138;SDS011;57507;43.056;0.150;2023-04-08T10:25:43;0.77;;;0.40;;
70138;SDS011;57507;43.056;0.150;2023-04-08T10:30:39;0.50;;;0.40;;
70138;SDS011;57507;43.056;0.150;2023-04-08T10:33:12;0.98;;;0.47;;
70138;SDS011;57507;43.056;0.150;2023-04-08T10:35:42;1.35;;;0.50;;
70138;SDS011;57507;43.056;0.150;2023-04-08T10:38:11;0.95;;;0.52;;
70138;SDS011;57507;43.056;0.150;2023-04-08T10:40:38;0.60;;;0.50;;
70138;SDS011;57507;43.056;0.150;2023-04-08T10:43:05;1.63;;;0.55;;
70138;SDS011;57507;43.056;0.150;2023-04-08T10:45:31;0.63;;;0.40;;
70138;SDS011;57507;43.056;0.150;2023-04-08T10:48:20;0.80;;;0.50;;
70138;SDS011;57507;43.056;0.150;2023-04-08T10:50:57;2.00;;;0.50;;
70138;SDS011;57507;43.056;0.150;2023-04-08T10:53:27;0.80;;;0.50;;
70138;SDS011;57507;43.056;0.150;2023-04-08T10:55:54;0.50;;;0.30;;
70138;SDS011;57507;43.056;0.150;2023-04-08T10:58:20;0.73;;;0.73;;
70138;SDS011;57507;43.056;0.150;2023-04-08T11:00:46;0.90;;;0.45;;
70138;SDS011;57507;43.056;0.150;2023-04-08T11:03:12;1.10;;;0.47;;
70138;SDS011;57507;43.056;0.150;2023-04-08T11:05:38;1.35;;;0.57;;
70138;SDS011;57507;43.056;0.150;2023-04-08T11:08:04;1.75;;;0.32;;
70138;SDS011;57507;43.056;0.150;2023-04-08T11:10:33;0.35;;;0.30;;
70138;SDS011;57507;43.056;0.150;2023-04-08T11:13:01;1.48;;;0.43;;
70138;SDS011;57507;43.056;0.150;2023-04-08T11:15:28;0.40;;;0.30;;
70138;SDS011;57507;43.056;0.150;2023-04-08T11:17:55;0.85;;;0.40;;
70138;SDS011;57507;43.056;0.150;2023-04-08T11:20:21;0.32;;;0.30;;
70138;SDS011;57507;43.056;0.150;2023-04-08T11:22:47;0.52;;;0.50;;
70138;SDS011;57507;43.056;0.150;2023-04-08T11:25:13;0.77;;;0.40;;
70138;SDS011;57507;43.056;0.150;2023-04-08T11:27:39;4.75;;;0.65;;
70138;SDS011;57507;43.056;0.150;2023-04-08T11:30:06;0.60;;;0.60;;
70138;SDS011;57507;43.056;0.150;2023-04-08T11:32:32;0.80;;;0.32;;
70138;SDS011;57507;43.056;0.150;2023-04-08T11:34:59;0.55;;;0.40;;
70138;SDS011;57507;43.056;0.150;2023-04-08T11:37:26;0.40;;;0.30;;
70138;SDS011;57507;43.056;0.150;2023-04-08T11:39:53;0.45;;;0.40;;
70138;SDS011;57507;43.056;0.150;2023-04-08T11:42:29;0.30;;;0.30;;
70138;SDS011;57507;43.056;0.150;2023-04-08T11:44:55;0.65;;;0.40;;
70138;SDS011;57507;43.056;0.150;2023-04-08T11:47:22;0.90;;;0.25;;
70138;SDS011;57507;43.056;0.150;2023-04-08T11:49:55;1.08;;;0.40;;
70138;SDS011;57507;43.056;0.150;2023-04-08T11:52:22;0.38;;;0.30;;
70138;SDS011;57507;43.056;0.150;2023-04-08T11:54:48;2.67;;;0.40;;
70138;SDS011;57507;43.056;0.150;2023-04-08T11:57:14;0.30;;;0.30;;
70138;SDS011;57507;43.056;0.150;2023-04-08T11:59:53;0.75;;;0.40;;
70138;SDS011;57507;43.056;0.150;2023-04-08T12:02:19;0.57;;;0.30;;
70138;SDS011;57507;43.056;0.150;2023-04-08T12:04:45;0.50;;;0.30;;
70138;SDS011;57507;43.056;0.150;2023-04-08T12:07:11;0.30;;;0.30;;
70138;SDS011;57507;43.056;0.150;2023-04-08T12:09:38;0.88;;;0.35;;
70138;SDS011;57507;43.056;0.150;2023-04-08T12:12:04;0.22;;;0.22;;
70138;SDS011;57507;43.056;0.150;2023-04-08T12:14:30;0.63;;;0.40;;
70138;SDS011;57507;43.056;0.150;2023-04-08T12:16:56;0.75;;;0.32;;
70138;SDS011;57507;43.056;0.150;2023-04-08T12:19:22;0.70;;;0.25;;
70138;SDS011;57507;43.056;0.150;2023-04-08T12:21:48;0.63;;;0.30;;
70138;SDS011;57507;43.056;0.150;2023-04-08T12:24:14;0.65;;;0.25;;
70138;SDS011;57507;43.056;0.150;2023-04-08T12:26:40;1.15;;;0.40;;
70138;SDS011;57507;43.056;0.150;2023-04-08T12:29:06;0.43;;;0.30;;
70138;SDS011;57507;43.056;0.150;2023-04-08T12:31:35;1.42;;;0.70;;
70138;SDS011;57507;43.056;0.150;2023-04-08T12:34:01;0.60;;;0.43;;
70138;SDS011;57507;43.056;0.150;2023-04-08T12:36:27;1.15;;;0.45;;
70138;SDS011;57507;43.056;0.150;2023-04-08T12:38:53;1.98;;;0.40;;
70138;SDS011;57507;43.056;0.150;2023-04-08T12:41:19;0.63;;;0.40;;
70138;SDS011;57507;43.056;0.150;2023-04-08T12:43:45;1.05;;;0.47;;
70138;SDS011;57507;43.056;0.150;2023-04-08T12:46:11;0.50;;;0.50;;
70138;SDS011;57507;43.056;0.150;2023-04-08T12:48:38;0.38;;;0.38;;
70138;SDS011;57507;43.056;0.150;2023-04-08T12:51:04;0.57;;;0.43;;
70138;SDS011;57507;43.056;0.150;2023-04-08T12:53:30;0.43;;;0.38;;
70138;SDS011;57507;43.056;0.150;2023-04-08T12:55:56;1.70;;;0.40;;
70138;SDS011;57507;43.056;0.150;2023-04-08T12:58:23;0.93;;;0.52;;
70138;SDS011;57507;43.056;0.150;2023-04-08T13:00:49;0.47;;;0.32;;
70138;SDS011;57507;43.056;0.150;2023-04-08T13:03:15;0.28;;;0.20;;
70138;SDS011;57507;43.056;0.150;2023-04-08T13:05:42;0.60;;;0.50;;
70138;SDS011;57507;43.056;0.150;2023-04-08T13:08:08;0.55;;;0.30;;
70138;SDS011;57507;43.056;0.150;2023-04-08T13:10:36;0.50;;;0.50;;
70138;SDS011;57507;43.056;0.150;2023-04-08T13:13:02;0.57;;;0.35;;
70138;SDS011;57507;43.056;0.150;2023-04-08T13:15:28;0.60;;;0.38;;
70138;SDS011;57507;43.056;0.150;2023-04-08T13:17:54;1.27;;;0.75;;
70138;SDS011;57507;43.056;0.150;2023-04-08T13:20:20;0.50;;;0.40;;
70138;SDS011;57507;43.056;0.150;2023-04-08T13:22:49;1.17;;;0.30;;
70138;SDS011;57507;43.056;0.150;2023-04-08T13:25:15;0.98;;;0.40;;
70138;SDS011;57507;43.056;0.150;2023-04-08T13:27:41;1.38;;;0.60;;
70138;SDS011;57507;43.056;0.150;2023-04-08T13:30:08;0.93;;;0.40;;
70138;SDS011;57507;43.056;0.150;2023-04-08T13:32:34;1.45;;;0.30;;
70138;SDS011;57507;43.056;0.150;2023-04-08T13:35:00;0.55;;;0.40;;
70138;SDS011;57507;43.056;0.150;2023-04-08T13:37:26;0.30;;;0.30;;
70138;SDS011;57507;43.056;0.150;2023-04-08T13:39:53;0.68;;;0.40;;
70138;SDS011;57507;43.056;0.150;2023-04-08T13:42:19;0.32;;;0.30;;
70138;SDS011;57507;43.056;0.150;2023-04-08T13:44:45;0.40;;;0.40;;
70138;SDS011;57507;43.056;0.150;2023-04-08T13:47:11;1.10;;;0.50;;
70138;SDS011;57507;43.056;0.150;2023-04-08T13:49:37;0.40;;;0.20;;
70138;SDS011;57507;43.056;0.150;2023-04-08T13:52:03;2.08;;;0.38;;
70138;SDS011;57507;43.056;0.150;2023-04-08T13:54:29;0.28;;;0.28;;
70138;SDS011;57507;43.056;0.150;2023-04-08T13:56:55;0.52;;;0.40;;
70138;SDS011;57507;43.056;0.150;2023-04-08T13:59:21;0.60;;;0.50;;
70138;SDS011;57507;43.056;0.150;2023-04-08T14:01:48;1.05;;;0.40;;
70138;SDS011;57507;43.056;0.150;2023-04-08T14:04:18;0.50;;;0.35;;
70138;SDS011;57507;43.056;0.150;2023-04-08T14:06:44;1.42;;;0.70;;
70138;SDS011;57507;43.056;0.150;2023-04-08T14:09:10;0.88;;;0.70;;
70138;SDS011;57507;43.056;0.150;2023-04-08T14:11:36;1.88;;;0.80;;
70138;SDS011;57507;43.056;0.150;2023-04-08T14:14:02;1.13;;;0.90;;
70138;SDS011;57507;43.056;0.150;2023-04-08T14:16:28;1.60;;;0.98;;
70138;SDS011;57507;43.056;0.150;2023-04-08T14:18:56;1.20;;;1.10;;
70138;SDS011;57507;43.056;0.150;2023-04-08T14:21:22;1.98;;;1.20;;
70138;SDS011;57507;43.056;0.150;2023-04-08T14:23:48;2.58;;;2.38;;
70138;SDS011;57507;43.056;0.150;2023-04-08T14:26:15;3.03;;;2.55;;
70138;SDS011;57507;43.056;0.150;2023-04-08T14:28:41;3.95;;;3.08;;
70138;SDS011;57507;43.056;0.150;2023-04-08T14:31:07;4.65;;;3.58;;
70138;SDS011;57507;43.056;0.150;2023-04-08T14:33:33;3.90;;;3.03;;
70138;SDS011;57507;43.056;0.150;2023-04-08T14:35:59;3.67;;;2.90;;
70138;SDS011;57507;43.056;0.150;2023-04-08T14:38:25;4.35;;;3.58;;
70138;SDS011;57507;43.056;0.150;2023-04-08T14:40:51;6.32;;;4.90;;
70138;SDS011;57507;43.056;0.150;2023-04-08T14:43:18;6.07;;;4.32;;
70138;SDS011;57507;43.056;0.150;2023-04-08T14:45:45;6.60;;;4.30;;
70138;SDS011;57507;43.056;0.150;2023-04-08T14:48:11;6.53;;;4.50;;
70138;SDS011;57507;43.056;0.150;2023-04-08T14:50:37;5.78;;;4.38;;
70138;SDS011;57507;43.056;0.150;2023-04-08T14:53:03;4.43;;;3.00;;
70138;SDS011;57507;43.056;0.150;2023-04-08T14:55:29;4.25;;;2.40;;
70138;SDS011;57507;43.056;0.150;2023-04-08T14:57:56;1.92;;;1.38;;
70138;SDS011;57507;43.056;0.150;2023-04-08T15:00:22;1.70;;;1.00;;
70138;SDS011;57507;43.056;0.150;2023-04-08T15:02:48;2.35;;;1.30;;
70138;SDS011;57507;43.056;0.150;2023-04-08T15:05:14;1.88;;;1.17;;
70138;SDS011;57507;43.056;0.150;2023-04-08T15:07:40;1.45;;;1.00;;
70138;SDS011;57507;43.056;0.150;2023-04-08T15:10:07;1.42;;;0.80;;
70138;SDS011;57507;43.056;0.150;2023-04-08T15:12:33;26.42;;;6.35;;
70138;SDS011;57507;43.056;0.150;2023-04-08T15:15:00;10.85;;;1.92;;
70138;SDS011;57507;43.056;0.150;2023-04-08T15:17:26;5.47;;;1.40;;
70138;SDS011;57507;43.056;0.150;2023-04-08T15:19:52;1.80;;;0.80;;
70138;SDS011;57507;43.056;0.150;2023-04-08T15:22:18;1.20;;;0.90;;
70138;SDS011;57507;43.056;0.150;2023-04-08T15:24:45;50.72;;;9.02;;
70138;SDS011;57507;43.056;0.150;2023-04-08T15:27:11;13.00;;;2.88;;
70138;SDS011;57507;43.056;0.150;2023-04-08T15:29:38;4.82;;;1.20;;
70138;SDS011;57507;43.056;0.150;2023-04-08T15:32:04;3.53;;;1.17;;
70138;SDS011;57507;43.056;0.150;2023-04-08T15:34:30;2.05;;;0.60;;
70138;SDS011;57507;43.056;0.150;2023-04-08T15:36:56;1.48;;;0.70;;
70138;SDS011;57507;43.056;0.150;2023-04-08T15:39:22;2.50;;;0.60;;